Time;durP1;ratioP1;P1;durP2;ratioP2;P2;SDS_P1;SDS_P2;PMS_P1;PMS_P2;Temp;Humidity;BMP_temperature;BMP_pressure;BME280_temperature;BME280_humidity;BME280_pressure;Samples;Min_cycle;Max_cycle;Signal;HPM_P1;HPM_P2
2021/04/01 00:00:53;;;;;;;102.07;33.60;;;;;;;3.31;100.00;101747.02;1737388;82;21537;-89
2021/04/01 00:03:19;;;;;;;104.23;35.80;;;;;;;3.22;100.00;101747.30;1740095;82;21132;-90
2021/04/01 00:05:45;;;;;;;100.85;35.98;;;;;;;3.19;100.00;101746.64;1721126;83;21615;-89
2021/04/01 00:08:12;;;;;;;102.45;36.98;;;;;;;3.18;100.00;101748.17;1712956;83;21156;-89
2021/04/01 00:10:42;;;;;;;110.17;36.98;;;;;;;3.15;100.00;101746.70;1781627;80;21188;-89
2021/04/01 00:13:08;;;;;;;119.15;38.38;;;;;;;3.01;100.00;101742.17;1781388;80;21136;-89
2021/04/01 00:15:38;;;;;;;121.25;39.38;;;;;;;2.90;100.00;101738.61;1781297;80;21577;-89
2021/04/01 00:18:09;;;;;;;119.85;40.03;;;;;;;2.92;100.00;101739.27;1781521;80;21132;-89
2021/04/01 00:20:35;;;;;;;119.33;40.00;;;;;;;2.90;100.00;101742.09;1781533;80;21109;-89
2021/04/01 00:23:01;;;;;;;108.50;39.38;;;;;;;2.86;100.00;101737.33;1781410;80;21119;-89
2021/04/01 00:25:27;;;;;;;103.53;36.28;;;;;;;2.88;100.00;101733.96;1781604;80;21184;-88
2021/04/01 00:27:55;;;;;;;108.85;38.30;;;;;;;2.90;100.00;101723.46;1781692;80;21117;-89
2021/04/01 00:30:22;;;;;;;110.28;37.48;;;;;;;2.88;100.00;101732.63;1781613;80;21136;-89
2021/04/01 00:32:48;;;;;;;115.60;38.38;;;;;;;2.91;100.00;101717.63;1776588;80;21188;-89
2021/04/01 00:35:15;;;;;;;113.22;37.53;;;;;;;2.94;100.00;101714.59;1781613;80;21052;-89
2021/04/01 00:37:41;;;;;;;117.22;37.28;;;;;;;2.95;100.00;101712.28;1781490;80;21204;-89
2021/04/01 00:40:08;;;;;;;120.95;40.83;;;;;;;2.93;100.00;101707.13;1781426;80;21185;-89
2021/04/01 00:42:36;;;;;;;126.67;38.63;;;;;;;2.94;100.00;101706.13;1781497;80;21549;-89
2021/04/01 00:45:06;;;;;;;114.97;38.28;;;;;;;2.96;100.00;101707.27;1781495;80;21658;-88
2021/04/01 00:47:42;;;;;;;124.18;38.65;;;;;;;2.96;100.00;101706.76;1712815;83;21581;-88
2021/04/01 00:50:12;;;;;;;112.37;38.00;;;;;;;2.95;100.00;101702.45;1714917;82;21176;-89
2021/04/01 00:52:39;;;;;;;131.40;38.58;;;;;;;2.95;100.00;101698.45;1713097;83;21171;-92
2021/04/01 00:55:08;;;;;;;120.72;38.70;;;;;;;2.93;100.00;101700.98;1713288;83;21231;-91
2021/04/01 00:57:36;;;;;;;123.95;40.45;;;;;;;2.91;100.00;101699.84;1713084;83;21080;-91
2021/04/01 01:00:06;;;;;;;144.28;41.10;;;;;;;2.90;100.00;101692.02;1713219;83;21112;-91
2021/04/01 01:02:32;;;;;;;120.65;38.83;;;;;;;2.87;100.00;101691.88;1713129;83;21285;-88
2021/04/01 01:04:59;;;;;;;125.22;39.50;;;;;;;2.85;100.00;101688.56;1720462;83;21080;-88
2021/04/01 01:07:25;;;;;;;125.58;38.92;;;;;;;2.84;100.00;101688.25;1696482;83;21676;-91
2021/04/01 01:09:51;;;;;;;133.00;40.17;;;;;;;2.77;100.00;101687.33;1721018;83;21176;-88
2021/04/01 01:12:17;;;;;;;118.80;38.10;;;;;;;2.68;100.00;101685.25;1721009;83;21651;-91
2021/04/01 01:14:43;;;;;;;119.75;39.25;;;;;;;2.64;100.00;101682.61;1720972;83;21073;-88
2021/04/01 01:17:09;;;;;;;114.88;38.13;;;;;;;2.59;100.00;101687.67;1720933;83;21164;-89
2021/04/01 01:19:39;;;;;;;118.25;36.83;;;;;;;2.60;100.00;101684.50;1721026;83;21139;-89
2021/04/01 01:22:09;;;;;;;132.22;39.98;;;;;;;2.59;100.00;101686.81;1690286;84;21242;-89
2021/04/01 01:24:36;;;;;;;151.22;43.68;;;;;;;2.56;100.00;101682.70;1690435;84;21179;-90
2021/04/01 01:27:05;;;;;;;166.95;44.88;;;;;;;2.53;100.00;101691.05;1690428;84;21536;-89
2021/04/01 01:29:32;;;;;;;147.68;43.63;;;;;;;2.55;100.00;101685.53;1614629;88;21238;-92
2021/04/01 01:31:58;;;;;;;141.12;40.75;;;;;;;2.51;100.00;101687.73;1613596;88;21621;-91
2021/04/01 01:34:24;;;;;;;141.88;42.65;;;;;;;2.46;100.00;101691.42;1614575;88;21188;-91
2021/04/01 01:36:51;;;;;;;128.32;38.65;;;;;;;2.41;100.00;101691.98;1614709;88;20984;-89
2021/04/01 01:39:17;;;;;;;137.35;41.58;;;;;;;2.43;100.00;101687.80;1614734;88;21260;-89
2021/04/01 01:41:43;;;;;;;154.23;43.85;;;;;;;2.32;100.00;101683.72;1614602;88;21554;-90
2021/04/01 01:44:09;;;;;;;133.52;41.35;;;;;;;2.23;100.00;101678.95;1626067;87;21076;-88
2021/04/01 01:46:35;;;;;;;111.97;34.50;;;;;;;2.26;100.00;101678.63;1598891;87;21211;-88
2021/04/01 01:49:01;;;;;;;113.88;36.50;;;;;;;2.16;100.00;101675.88;1642526;87;20992;-91
2021/04/01 01:51:30;;;;;;;115.65;37.00;;;;;;;2.18;100.00;101679.20;1642502;87;22276;-90
2021/04/01 01:53:56;;;;;;;113.97;36.58;;;;;;;2.02;100.00;101676.12;1642491;87;21229;-91
2021/04/01 01:56:25;;;;;;;104.45;35.90;;;;;;;1.93;100.00;101676.69;1642450;87;21163;-90
2021/04/01 01:58:54;;;;;;;106.17;34.95;;;;;;;1.86;100.00;101681.56;1642497;87;21127;-89
2021/04/01 02:01:23;;;;;;;109.50;34.55;;;;;;;1.91;100.00;101671.21;1614499;88;21238;-89
2021/04/01 02:03:48;;;;;;;107.40;34.23;;;;;;;1.87;100.00;101673.41;1611966;88;21707;-89
2021/04/01 02:06:16;;;;;;;98.37;33.70;;;;;;;1.79;100.00;101674.77;1607923;89;21179;-88
2021/04/01 02:08:42;;;;;;;132.40;41.42;;;;;;;1.72;100.00;101670.66;1607920;89;21124;-89
2021/04/01 02:11:08;;;;;;;121.40;38.78;;;;;;;1.58;100.00;101676.20;1607890;89;21671;-91
2021/04/01 02:13:34;;;;;;;124.18;38.55;;;;;;;1.33;100.00;101675.50;1607930;89;21167;-89
2021/04/01 02:16:00;;;;;;;131.80;38.70;;;;;;;1.35;100.00;101666.88;1607726;89;21200;-90
2021/04/01 02:18:29;;;;;;;120.02;37.95;;;;;;;1.41;100.00;101663.18;1617554;87;21266;-89
2021/04/01 02:20:59;;;;;;;110.05;37.25;;;;;;;1.48;100.00;101668.14;1640502;87;21163;-88
2021/04/01 02:23:32;;;;;;;136.50;38.65;;;;;;;1.52;100.00;101665.45;1640523;87;21578;-89
2021/04/01 02:26:00;;;;;;;105.10;36.33;;;;;;;1.58;100.00;101668.23;1657985;84;21746;-88
2021/04/01 02:28:30;;;;;;;113.08;37.78;;;;;;;1.48;100.00;101657.52;1691847;84;21890;-88
2021/04/01 02:31:01;;;;;;;125.12;37.40;;;;;;;1.29;100.00;101658.24;1691978;84;21154;-89
2021/04/01 02:33:30;;;;;;;115.72;35.90;;;;;;;1.24;100.00;101660.61;1691931;84;21212;-90
2021/04/01 02:35:57;;;;;;;128.23;40.12;;;;;;;1.13;100.00;101658.32;1692040;84;21520;-90
2021/04/01 02:38:24;;;;;;;129.15;41.92;;;;;;;1.14;100.00;101656.81;1661289;86;21638;-91
2021/04/01 02:40:52;;;;;;;125.40;38.98;;;;;;;1.18;100.00;101654.66;1661417;86;21160;-91
2021/04/01 02:43:24;;;;;;;129.15;44.13;;;;;;;1.23;100.00;101653.63;1661411;86;21179;-91
2021/04/01 02:45:46;;;;;;;131.63;40.83;;;;;;;1.19;100.00;101651.50;1657796;86;21202;-92
2021/04/01 02:48:12;;;;;;;133.07;43.68;;;;;;;1.08;100.00;101648.70;1661283;86;21020;-92
2021/04/01 02:50:38;;;;;;;132.85;43.05;;;;;;;1.09;100.00;101641.91;1661387;86;20969;-92
2021/04/01 02:53:04;;;;;;;128.95;42.48;;;;;;;1.11;100.00;101646.53;1661173;86;21596;-92
2021/04/01 02:55:30;;;;;;;150.55;45.05;;;;;;;1.24;100.00;101646.01;1661107;86;21052;-91
2021/04/01 02:57:56;;;;;;;133.72;42.27;;;;;;;1.35;100.00;101640.33;1661359;86;21013;-90
2021/04/01 03:00:26;;;;;;;135.43;43.10;;;;;;;1.39;100.00;101640.80;1661417;86;20953;-90
2021/04/01 03:02:54;;;;;;;142.57;43.52;;;;;;;1.38;100.00;101632.48;1675094;84;21188;-90
2021/04/01 03:05:17;;;;;;;132.52;42.33;;;;;;;1.43;100.00;101635.95;1725788;82;21120;-91
2021/04/01 03:07:43;;;;;;;140.40;43.55;;;;;;;1.38;100.00;101639.63;1744314;82;21140;-91
2021/04/01 03:10:12;;;;;;;122.82;39.95;;;;;;;1.43;100.00;101638.11;1744261;82;21136;-91
2021/04/01 03:12:39;;;;;;;138.55;42.38;;;;;;;1.49;100.00;101641.39;1739486;82;21168;-91
2021/04/01 03:15:08;;;;;;;137.70;42.33;;;;;;;1.54;100.00;101638.23;1744205;82;21177;-91
2021/04/01 03:17:34;;;;;;;135.12;42.25;;;;;;;1.53;100.00;101634.75;1744153;82;21327;-92
2021/04/01 03:20:02;;;;;;;135.68;41.73;;;;;;;1.59;100.00;101634.05;1744144;82;21137;-92
2021/04/01 03:22:28;;;;;;;141.90;42.80;;;;;;;1.64;100.00;101625.54;1744022;81;21149;-90
2021/04/01 03:24:54;;;;;;;120.25;39.35;;;;;;;1.66;100.00;101621.39;1744143;82;21192;-92
2021/04/01 03:27:20;;;;;;;123.38;40.63;;;;;;;1.68;100.00;101616.74;1744312;81;21094;-92
2021/04/01 03:30:03;;;;;;;129.93;38.33;;;;;;;1.72;100.00;101614.87;1744363;82;21214;-91
2021/04/01 03:32:16;;;;;;;124.62;38.92;;;;;;;1.74;100.00;101620.02;1743290;81;21593;-91
2021/04/01 03:34:42;;;;;;;128.75;41.10;;;;;;;1.73;100.00;101619.67;1744244;82;21026;-91
2021/04/01 03:37:07;;;;;;;142.82;43.70;;;;;;;1.83;100.00;101622.12;1744112;82;21600;-91
2021/04/01 03:39:33;;;;;;;132.03;41.63;;;;;;;1.84;100.00;101615.28;1714738;82;20942;-91
2021/04/01 03:41:59;;;;;;;123.92;41.77;;;;;;;1.78;100.00;101618.66;1744176;82;21119;-90
2021/04/01 03:44:25;;;;;;;121.77;39.27;;;;;;;1.74;100.00;101620.02;1744117;82;21160;-90
2021/04/01 03:46:51;;;;;;;134.52;39.83;;;;;;;1.78;100.00;101621.31;1744215;81;20939;-91
2021/04/01 03:49:17;;;;;;;112.92;37.08;;;;;;;1.91;100.00;101620.72;1744222;82;20910;-91
2021/04/01 03:51:43;;;;;;;128.12;39.95;;;;;;;1.91;100.00;101615.39;1744087;82;20982;-90
2021/04/01 03:54:09;;;;;;;118.70;38.55;;;;;;;2.05;100.00;101614.13;1744174;82;22004;-91
2021/04/01 03:56:35;;;;;;;133.12;41.28;;;;;;;2.20;100.00;101613.34;1744166;82;21581;-92
2021/04/01 03:59:05;;;;;;;131.70;42.15;;;;;;;2.30;100.00;101613.11;1744171;82;21039;-92
2021/04/01 04:15:09;;;;;;;109.25;37.88;;;;;;;3.59;100.00;101607.80;1750388;82;21196;-92
2021/04/01 04:17:32;;;;;;;105.45;39.13;;;;;;;4.16;100.00;101603.41;1750032;82;21124;-92
2021/04/01 04:19:59;;;;;;;104.40;40.85;;;;;;;4.61;100.00;101605.29;1750665;82;21276;-93
2021/04/01 04:22:25;;;;;;;104.25;40.15;;;;;;;5.21;100.00;101601.93;1750293;82;21116;-94
2021/04/01 04:24:53;;;;;;;116.55;40.70;;;;;;;5.96;100.00;101599.27;1750426;81;21589;-95
2021/04/01 04:30:02;;;;;;;104.72;38.80;;;;;;;6.46;100.00;101604.22;1750869;81;21184;-95
2021/04/01 04:32:29;;;;;;;;;;;;;;;6.85;100.00;101601.16;1753409;82;21966;-94
2021/04/01 04:34:57;;;;;;;109.83;38.35;;;;;;;6.74;100.00;101597.28;1750557;81;20275;-93
2021/04/01 04:37:23;;;;;;;97.45;37.67;;;;;;;7.35;100.00;101600.87;1720381;83;21613;-95
2021/04/01 04:39:50;;;;;;;97.30;36.95;;;;;;;7.15;100.00;101599.64;1720263;83;21176;-94
2021/04/01 04:42:18;;;;;;;104.12;38.20;;;;;;;7.08;100.00;101601.50;1720829;83;21600;-95
2021/04/01 04:44:45;;;;;;;103.53;37.33;;;;;;;6.94;100.00;101599.40;1720798;83;21189;-92
2021/04/01 04:47:11;;;;;;;97.45;37.20;;;;;;;7.06;100.00;101595.55;1721042;83;21193;-95
2021/04/01 04:49:37;;;;;;;97.82;38.42;;;;;;;7.81;100.00;101590.94;1722101;83;21197;-95
2021/04/01 04:52:08;;;;;;;95.77;37.55;;;;;;;7.21;100.00;101594.77;1722099;83;21183;-96
2021/04/01 04:54:34;;;;;;;97.60;37.50;;;;;;;7.36;100.00;101590.47;1675236;85;21225;-96
2021/04/01 04:57:12;;;;;;;92.55;37.33;;;;;;;7.92;100.00;101588.38;1674366;85;21151;-94
2021/04/01 04:59:39;;;;;;;89.42;35.75;;;;;;;8.43;100.00;101589.23;1670314;85;21184;-96
2021/04/01 05:04:53;;;;;;;87.80;35.03;;;;;;;9.12;100.00;101591.80;1671362;84;21507;-96
2021/04/01 05:07:15;;;;;;;80.03;34.78;;;;;;;9.76;100.00;101587.14;1667040;86;21195;-96
2021/04/01 05:09:41;;;;;;;71.72;32.78;;;;;;;11.10;100.00;101579.72;1648720;86;21335;-94
2021/04/01 05:12:13;;;;;;;72.82;32.25;;;;;;;11.49;100.00;101575.87;1672216;86;21133;-95
2021/04/01 05:22:32;;;;;;;58.23;30.20;;;;;;;14.61;73.43;101568.92;1562867;90;21175;-93
2021/04/01 05:24:52;;;;;;;61.95;29.32;;;;;;;16.72;71.52;101566.23;1558652;92;21105;-93
2021/04/01 05:29:59;;;;;;;54.38;27.27;;;;;;;17.47;66.35;101565.36;1558743;92;21755;-93
2021/04/01 05:32:38;;;;;;;60.30;27.07;;;;;;;19.90;62.03;101562.72;1557826;92;21641;-93
2021/04/01 05:35:09;;;;;;;55.85;27.48;;;;;;;21.62;55.65;101558.77;1556769;92;21239;-92
2021/04/01 05:37:35;;;;;;;45.30;25.72;;;;;;;22.95;50.97;101555.32;1507439;95;21289;-94
2021/04/01 05:40:02;;;;;;;51.18;25.82;;;;;;;24.15;47.56;101551.48;1506902;95;21171;-93
2021/04/01 05:42:34;;;;;;;46.02;24.55;;;;;;;25.14;41.53;101547.88;1509371;95;21716;-92
2021/04/01 05:45:11;;;;;;;47.48;24.02;;;;;;;25.80;38.70;101546.38;1509460;95;21195;-92
2021/04/01 05:47:40;;;;;;;44.35;24.05;;;;;;;25.22;33.52;101550.36;1512135;93;21160;-91
2021/04/01 05:50:22;;;;;;;45.92;23.73;;;;;;;27.39;34.53;101545.66;1529276;93;21187;-93
2021/04/01 06:03:48;;;;;;;42.88;23.45;;;;;;;26.76;35.07;101538.36;1538891;93;21707;-93
2021/04/01 06:06:17;;;;;;;42.17;22.07;;;;;;;27.14;32.57;101526.88;1534558;93;21294;-92
2021/04/01 06:08:50;;;;;;;44.77;21.27;;;;;;;27.46;32.53;101532.00;1472935;96;21180;-92
2021/04/01 06:11:20;;;;;;;36.77;21.02;;;;;;;27.77;32.77;101518.03;1491793;96;21355;-90
2021/04/01 06:14:08;;;;;;;36.38;21.37;;;;;;;27.91;31.90;101521.18;1491621;96;21284;-89
2021/04/01 06:16:37;;;;;;;36.98;20.55;;;;;;;29.01;29.65;101521.48;1488708;96;21274;-90
2021/04/01 06:19:10;;;;;;;35.70;18.02;;;;;;;29.90;28.58;101516.36;1453438;97;21320;-85
2021/04/01 06:21:46;;;;;;;34.25;20.12;;;;;;;30.71;27.08;101517.52;1477944;94;21213;-84
2021/04/01 06:24:25;;;;;;;31.95;19.27;;;;;;;31.14;26.77;101515.91;1430775;100;21253;-83
2021/04/01 06:29:42;;;;;;;31.70;20.45;;;;;;;31.12;27.41;101509.91;1393836;101;21821;-84
2021/04/01 06:32:24;;;;;;;31.93;19.82;;;;;;;32.88;24.71;101510.98;1395787;100;21162;-84
2021/04/01 06:34:50;;;;;;;36.98;22.15;;;;;;;31.90;25.32;101517.02;1417027;100;21308;-85
2021/04/01 06:37:43;;;;;;;38.30;22.17;;;;;;;33.20;22.59;101511.16;1432324;100;21268;-85
2021/04/01 06:40:00;;;;;;;40.98;23.40;;;;;;;30.65;25.26;101510.66;1418990;99;21197;-84
2021/04/01 06:42:43;;;;;;;38.98;23.62;;;;;;;31.56;24.44;101511.48;1400427;101;21879;-84
2021/04/01 06:45:10;;;;;;;35.08;20.35;;;;;;;31.49;25.78;101516.16;1380691;102;21306;-85
2021/04/01 06:47:40;;;;;;;34.65;20.50;;;;;;;32.42;24.94;101507.30;1412051;100;21273;-86
2021/04/01 06:50:20;;;;;;;39.92;20.35;;;;;;;31.12;25.36;101512.70;1412241;101;21290;-83
2021/04/01 06:53:11;;;;;;;31.25;19.57;;;;;;;30.89;26.27;101510.03;1412295;101;21240;-85
2021/04/01 06:55:47;;;;;;;;;;;;;;;32.12;26.12;101506.27;1414292;100;21271;-84
2021/04/01 07:00:55;;;;;;;32.20;17.25;;;;;;;31.99;25.28;101504.95;1358845;104;21308;-85
2021/04/01 07:11:12;;;;;;;22.07;14.95;;;;;;;34.33;22.83;101488.00;1391488;101;21296;-84
2021/04/01 07:13:49;;;;;;;23.77;15.48;;;;;;;34.33;22.83;101488.00;1393398;101;21760;-83
2021/04/01 07:16:36;;;;;;;24.02;14.50;;;;;;;34.68;21.71;101491.36;1399348;101;21809;-85
2021/04/01 07:48:47;;;;;;;21.62;15.08;;;;;;;35.90;19.32;101452.88;1413574;101;21245;-85
2021/04/01 07:51:46;;;;;;;26.35;15.50;;;;;;;37.47;17.26;101439.84;1413634;101;21238;-85
2021/04/01 07:54:01;;;;;;;23.98;15.55;;;;;;;36.98;17.90;101436.50;1413739;101;21691;-85
2021/04/01 07:56:42;;;;;;;21.70;15.05;;;;;;;35.21;19.83;101447.52;1413455;101;21178;-85
2021/04/01 08:02:02;;;;;;;26.25;15.98;;;;;;;35.18;20.02;101443.55;1470470;97;21158;-82
2021/04/01 08:04:22;;;;;;;23.18;15.13;;;;;;;36.46;19.14;101432.49;1472929;96;21229;-82
2021/04/01 08:06:48;;;;;;;30.15;17.02;;;;;;;36.80;18.32;101425.50;1490924;94;21195;-82
2021/04/01 08:09:21;;;;;;;20.15;15.18;;;;;;;38.08;16.85;101419.14;1570547;90;21212;-83
2021/04/01 08:11:53;;;;;;;20.75;15.40;;;;;;;37.78;17.15;101420.06;1598093;89;21582;-84
2021/04/01 08:14:34;;;;;;;24.10;15.23;;;;;;;36.89;17.91;101415.15;1630628;86;21161;-84
2021/04/01 08:17:08;;;;;;;22.13;15.68;;;;;;;36.74;18.30;101416.53;1645826;86;21146;-83
2021/04/01 08:19:38;;;;;;;22.75;16.07;;;;;;;35.84;17.41;101422.27;1664225;84;21081;-82
2021/04/01 08:22:16;;;;;;;21.17;15.15;;;;;;;37.16;17.86;101409.57;1684199;83;21547;-88
2021/04/01 08:24:48;;;;;;;20.27;15.15;;;;;;;38.89;15.55;101413.76;1707304;83;21601;-86
2021/04/01 08:27:25;;;;;;;21.93;15.72;;;;;;;36.04;17.60;101412.09;1706356;84;21177;-86
2021/04/01 08:35:32;;;;;;;23.77;15.48;;;;;;;35.69;18.60;101400.56;1690847;84;21156;-88
2021/04/01 08:38:11;;;;;;;27.27;15.28;;;;;;;36.76;17.33;101382.59;1690912;84;21209;-87
2021/04/01 08:40:35;;;;;;;22.77;14.95;;;;;;;36.72;17.08;101393.70;1686924;84;21273;-88
2021/04/01 08:43:43;;;;;;;25.70;15.60;;;;;;;36.81;16.80;101384.14;1690801;84;21610;-88
2021/04/01 08:46:47;;;;;;;29.52;15.90;;;;;;;36.86;17.36;101389.30;1690782;84;21160;-88
2021/04/01 08:49:39;;;;;;;22.77;14.30;;;;;;;35.71;17.50;101382.11;1690866;84;21260;-89
2021/04/01 08:52:37;;;;;;;24.32;14.68;;;;;;;34.31;17.74;101380.64;1688203;84;21780;-88
2021/04/01 08:55:19;;;;;;;25.35;16.17;;;;;;;36.86;17.14;101375.25;1690824;84;21165;-88
2021/04/01 08:58:14;;;;;;;27.42;15.98;;;;;;;36.71;17.00;101373.24;1689426;84;21089;-86
2021/04/01 09:00:43;;;;;;;31.12;16.15;;;;;;;35.15;18.11;101368.70;1689572;84;21602;-86
2021/04/01 09:03:12;;;;;;;31.62;16.02;;;;;;;35.38;17.92;101363.91;1690802;84;21181;-86
2021/04/01 09:05:53;;;;;;;29.80;15.78;;;;;;;35.22;18.63;101365.05;1690787;84;21236;-86
2021/04/01 09:08:23;;;;;;;29.37;16.35;;;;;;;34.82;18.12;101365.25;1633743;87;21178;-86
2021/04/01 09:10:54;;;;;;;23.73;13.90;;;;;;;34.26;18.17;101361.45;1633415;87;21686;-86
2021/04/01 09:16:02;;;;;;;28.65;16.50;;;;;;;35.54;18.06;101346.58;1555962;92;21235;-87
2021/04/01 09:18:29;;;;;;;20.43;13.13;;;;;;;35.86;17.81;101321.66;1556046;92;21202;-86
2021/04/01 09:21:00;;;;;;;19.37;12.75;;;;;;;36.61;15.89;101335.63;1555918;90;21702;-87
2021/04/01 09:23:40;;;;;;;22.48;12.90;;;;;;;36.21;15.95;101314.87;1556116;92;21254;-86
2021/04/01 09:26:09;;;;;;;26.60;13.65;;;;;;;36.37;16.23;101330.50;1531788;93;21219;-86
2021/04/01 09:28:39;;;;;;;23.27;14.13;;;;;;;35.35;17.36;101330.30;1540894;93;21655;-86
2021/04/01 09:31:07;;;;;;;22.02;13.18;;;;;;;35.34;17.35;101321.71;1541041;93;21345;-86
2021/04/01 09:33:39;;;;;;;21.40;12.90;;;;;;;34.62;16.72;101318.55;1540826;93;21552;-86
2021/04/01 09:36:20;;;;;;;22.85;13.03;;;;;;;35.31;16.80;101316.33;1540711;93;21737;-86
2021/04/01 09:38:52;;;;;;;;;;;;;;;35.22;16.85;101311.19;1543329;93;21214;-86
2021/04/01 09:41:30;;;;;;;31.82;15.58;;;;;;;34.39;17.50;101314.25;1516827;94;20271;-87
2021/04/01 09:43:56;;;;;;;33.70;15.50;;;;;;;33.18;19.36;101309.02;1516466;94;22024;-86
2021/04/01 09:46:23;;;;;;;27.07;15.58;;;;;;;32.17;20.25;101310.44;1540988;93;21223;-87
2021/04/01 09:49:00;;;;;;;33.23;16.82;;;;;;;32.50;20.15;101301.04;1540990;92;21153;-88
2021/04/01 09:51:30;;;;;;;32.95;16.77;;;;;;;32.35;20.07;101305.14;1523487;92;21207;-88
2021/04/01 09:53:56;;;;;;;29.12;14.50;;;;;;;31.41;20.93;101289.60;1526563;92;21891;-90
2021/04/01 09:56:29;;;;;;;27.62;13.80;;;;;;;31.86;20.32;101292.52;1526471;92;21196;-87
2021/04/01 09:58:57;;;;;;;27.07;13.55;;;;;;;31.43;20.54;101286.64;1526287;92;21067;-87
2021/04/01 10:01:36;;;;;;;29.35;14.75;;;;;;;30.68;21.14;101283.67;1507612;94;21245;-87
2021/04/01 10:04:23;;;;;;;21.70;11.30;;;;;;;30.52;20.83;101283.31;1550401;90;21190;-86
2021/04/01 10:06:50;;;;;;;23.73;11.33;;;;;;;30.06;21.40;101283.52;1540602;91;21243;-87
2021/04/01 10:09:25;;;;;;;22.62;11.43;;;;;;;29.33;21.89;101277.23;1525807;94;21282;-89
2021/04/01 10:11:58;;;;;;;23.38;10.95;;;;;;;28.71;22.25;101272.33;1587150;87;21260;-87
2021/04/01 10:14:29;;;;;;;22.40;11.30;;;;;;;28.38;22.70;101266.68;1640530;87;21147;-89
2021/04/01 10:17:09;;;;;;;22.90;11.15;;;;;;;28.29;22.99;101263.33;1640635;87;21210;-89
2021/04/01 10:19:42;;;;;;;22.00;9.98;;;;;;;28.19;22.82;101258.38;1613882;88;21616;-89
2021/04/01 10:22:30;;;;;;;26.20;10.75;;;;;;;27.49;23.53;101256.38;1582413;90;21960;-88
2021/04/01 10:25:17;;;;;;;21.52;9.28;;;;;;;27.58;23.15;101253.63;1561938;91;21749;-88
2021/04/01 10:27:53;;;;;;;21.20;9.50;;;;;;;26.87;23.91;101248.47;1583712;89;21218;-88
2021/04/01 10:30:17;;;;;;;17.05;9.03;;;;;;;26.22;24.41;101244.48;1583932;89;21256;-90
2021/04/01 10:35:48;;;;;;;21.23;9.28;;;;;;;25.71;24.87;101238.59;1564246;90;21257;-88
2021/04/01 10:38:15;;;;;;;19.62;8.88;;;;;;;26.12;24.16;101234.48;1564311;90;21309;-88
2021/04/01 10:40:41;;;;;;;23.02;9.68;;;;;;;25.33;25.18;101229.30;1564219;90;21270;-88
2021/04/01 10:43:10;;;;;;;23.45;9.15;;;;;;;24.94;25.99;101223.22;1564296;90;21623;-88
2021/04/01 10:45:41;;;;;;;19.85;8.53;;;;;;;25.30;25.23;101219.75;1564280;90;21821;-88
2021/04/01 10:48:36;;;;;;;25.68;9.33;;;;;;;24.91;25.50;101226.12;1584569;88;21192;-90
2021/04/01 10:51:03;;;;;;;19.17;9.48;;;;;;;24.53;25.90;101214.50;1608645;89;21209;-87
2021/04/01 10:53:31;;;;;;;20.80;8.88;;;;;;;24.25;26.29;101216.44;1608788;89;21210;-89
2021/04/01 10:56:05;;;;;;;23.27;10.25;;;;;;;24.16;26.54;101204.12;1608782;89;21272;-88
2021/04/01 10:58:32;;;;;;;23.87;10.40;;;;;;;24.10;26.83;101201.91;1608767;89;21247;-89
2021/04/01 11:03:40;;;;;;;;;;;;;;;24.16;26.67;101195.86;1559185;91;21711;-88
2021/04/01 11:06:07;;;;;;;23.42;10.50;;;;;;;24.14;26.76;101194.58;1557365;90;20572;-88
2021/04/01 11:08:43;;;;;;;24.27;9.50;;;;;;;23.83;27.31;101186.74;1561671;91;21649;-89
2021/04/01 11:11:12;;;;;;;27.02;9.30;;;;;;;23.73;27.03;101193.43;1587467;90;21350;-89
2021/04/01 11:13:42;;;;;;;22.00;9.35;;;;;;;24.14;26.59;101193.20;1561502;91;21257;-89
2021/04/01 11:16:11;;;;;;;18.50;9.03;;;;;;;23.92;26.59;101186.91;1601354;88;21237;-88
2021/04/01 11:18:44;;;;;;;22.35;8.95;;;;;;;23.59;27.08;101184.04;1586322;90;21206;-91
2021/04/01 11:21:13;;;;;;;19.95;9.13;;;;;;;23.80;26.86;101181.34;1610597;88;21233;-91
2021/04/01 11:23:39;;;;;;;18.98;8.43;;;;;;;23.69;26.88;101175.95;1558690;89;21324;-90
2021/04/01 11:26:05;;;;;;;22.60;9.40;;;;;;;23.44;26.77;101170.84;1587616;89;21229;-90
2021/04/01 11:28:40;;;;;;;24.10;9.48;;;;;;;23.82;26.56;101172.15;1598827;89;21182;-90
2021/04/01 11:31:09;;;;;;;23.47;8.73;;;;;;;23.60;27.00;101169.70;1604015;89;21188;-90
2021/04/01 11:33:37;;;;;;;24.98;9.33;;;;;;;23.42;27.30;101164.89;1604145;88;21178;-90
2021/04/01 11:36:17;;;;;;;24.40;10.30;;;;;;;23.58;26.77;101157.64;1604072;89;21255;-89
2021/04/01 11:38:48;;;;;;;23.42;9.58;;;;;;;23.51;26.95;101162.88;1604034;88;21225;-90
2021/04/01 11:41:24;;;;;;;19.42;9.20;;;;;;;23.09;27.51;101150.42;1613638;88;28847;-88
2021/04/01 11:43:52;;;;;;;24.87;8.70;;;;;;;23.43;27.29;101146.66;1613624;88;21257;-90
2021/04/01 11:46:27;;;;;;;21.42;8.78;;;;;;;23.49;27.31;101139.81;1613499;88;21170;-90
2021/04/01 11:48:55;;;;;;;22.82;8.95;;;;;;;23.44;27.13;101139.20;1613352;88;21102;-90
2021/04/01 11:51:31;;;;;;;20.60;9.00;;;;;;;23.57;26.75;101134.03;1613388;88;21225;-90
2021/04/01 11:53:58;;;;;;;21.93;9.55;;;;;;;23.56;26.51;101128.30;1613410;88;21184;-89
2021/04/01 11:56:41;;;;;;;17.90;8.20;;;;;;;23.25;27.17;101123.95;1613462;87;21686;-90
2021/04/01 11:59:24;;;;;;;21.85;9.28;;;;;;;23.22;27.16;101119.70;1613513;87;21230;-95
2021/04/01 12:01:58;;;;;;;22.35;9.08;;;;;;;22.84;27.36;101110.88;1669046;83;21051;-96
2021/04/01 12:04:37;;;;;;;25.20;8.65;;;;;;;22.98;27.28;101105.19;1638699;84;41326;-96
2021/04/01 12:07:10;;;;;;;19.95;8.98;;;;;;;22.64;27.94;101102.22;1671634;85;21082;-96
2021/04/01 12:09:36;;;;;;;39.40;15.98;;;;;;;22.85;27.59;101097.36;1648569;83;21172;-92
2021/04/01 12:12:03;;;;;;;47.73;19.12;;;;;;;22.71;27.80;101098.15;1671866;84;21258;-93
2021/04/01 12:14:39;;;;;;;20.82;8.25;;;;;;;22.76;27.70;101096.59;1672960;86;21125;-94
2021/04/01 12:17:09;;;;;;;34.45;14.15;;;;;;;22.81;27.22;101093.10;1667399;86;21092;-96
2021/04/01 12:19:36;;;;;;;21.20;9.30;;;;;;;22.82;26.60;101088.41;1695560;83;21258;-95
2021/04/01 12:22:13;;;;;;;24.27;8.10;;;;;;;22.40;27.44;101089.05;1672685;83;21187;-96
2021/04/01 12:24:48;;;;;;;17.67;8.05;;;;;;;22.27;27.65;101085.16;1628363;85;21394;-95
2021/04/01 12:27:14;;;;;;;35.08;13.32;;;;;;;22.35;27.37;101080.98;1617916;87;21195;-95
2021/04/01 12:29:48;;;;;;;24.15;8.93;;;;;;;22.48;26.74;101077.81;1642157;87;21215;-95
2021/04/01 12:32:27;;;;;;;19.37;7.97;;;;;;;22.18;27.37;101073.61;1609639;88;21177;-95
2021/04/01 12:35:17;;;;;;;21.35;10.40;;;;;;;21.95;27.63;101071.60;1586919;90;21155;-94
2021/04/01 12:38:01;;;;;;;19.55;7.60;;;;;;;21.85;27.78;101070.55;1535765;91;21268;-95
2021/04/01 12:40:31;;;;;;;;;;;;;;;21.91;27.64;101060.21;1411384;99;21267;-94
2021/04/01 12:43:15;;;;;;;19.00;7.10;;;;;;;21.76;27.95;101065.06;1371570;103;21588;-95
2021/04/01 12:45:43;;;;;;;17.67;6.95;;;;;;;21.90;27.41;101059.41;1337727;107;21272;-95
2021/04/01 12:48:18;;;;;;;18.30;7.25;;;;;;;22.06;26.82;101055.61;1338004;107;21313;-95
2021/04/01 12:50:47;;;;;;;15.83;7.12;;;;;;;21.82;27.54;101045.12;1335872;106;21323;-95
2021/04/01 12:53:17;;;;;;;21.40;7.20;;;;;;;21.86;27.68;101039.82;1333767;107;21220;-96
2021/04/01 12:58:28;;;;;;;27.35;9.45;;;;;;;21.88;27.78;101038.34;1341864;105;21325;-96
2021/04/01 13:00:58;;;;;;;23.53;7.33;;;;;;;22.07;27.08;101031.70;1360815;103;21279;-95
2021/04/01 13:03:22;;;;;;;22.05;7.03;;;;;;;21.72;27.64;101025.70;1360470;104;21322;-94
2021/04/01 13:05:58;;;;;;;18.32;6.70;;;;;;;21.75;27.35;101024.25;1360649;105;21366;-96
2021/04/01 13:11:01;;;;;;;16.70;7.20;;;;;;;21.99;26.70;101018.23;1333171;107;21315;-94